Time;durP1;ratioP1;P1;durP2;ratioP2;P2;SDS_P1;SDS_P2;PMS_P1;PMS_P2;Temp;Humidity;BMP_temperature;BMP_pressure;BME280_temperature;BME280_humidity;BME280_pressure;Samples;Min_cycle;Max_cycle;Signal;HPM_P1;HPM_P2
2021/06/08 00:03:27;;;;;;;0.33;0.33;;;19.40;99.90;;;;;;21236271;27;20602;-66
2021/06/08 00:13:32;;;;;;;4.43;2.93;;;19.40;99.90;;;;;;21216890;27;20229;-67
2021/06/08 00:23:35;;;;;;;0.50;0.50;;;19.40;99.90;;;;;;21202470;27;20708;-67
2021/06/08 00:33:39;;;;;;;1.27;0.73;;;19.20;99.90;;;;;;21148560;27;20199;-67
2021/06/08 00:43:42;;;;;;;0.30;0.30;;;18.90;99.90;;;;;;21148965;28;20318;-67
2021/06/08 00:53:47;;;;;;;0.40;0.40;;;18.60;99.90;;;;;;21148158;28;20229;-66
2021/06/08 01:03:50;;;;;;;0.40;0.40;;;18.20;99.90;;;;;;21148138;28;20726;-67
2021/06/08 01:13:54;;;;;;;0.37;0.37;;;18.40;99.90;;;;;;21154995;28;20227;-68
2021/06/08 01:24:00;;;;;;;0.83;0.73;;;18.90;99.90;;;;;;21207398;27;20617;-67
2021/06/08 01:34:05;;;;;;;2.77;1.00;;;19.10;99.90;;;;;;21248308;27;20228;-67
2021/06/08 01:44:13;;;;;;;1.63;0.47;;;19.10;99.90;;;;;;21248321;27;20575;-66
2021/06/08 01:54:29;;;;;;;1.13;0.73;;;19.20;99.90;;;;;;21246874;27;20330;-66
2021/06/08 02:04:42;;;;;;;0.70;0.47;;;19.30;99.90;;;;;;21246357;27;20218;-68
2021/06/08 02:14:52;;;;;;;2.07;1.03;;;19.20;99.90;;;;;;21245674;27;20183;-67
2021/06/08 02:24:57;;;;;;;0.63;0.50;;;19.30;99.90;;;;;;21225462;27;20722;-67
2021/06/08 02:35:02;;;;;;;1.07;1.00;;;19.30;99.90;;;;;;21190473;27;20800;-68
2021/06/08 02:56:42;;;;;;;0.87;0.63;;;19.40;99.90;;;;;;5731606;28;23280;-67
2021/06/08 03:06:52;;;;;;;1.37;1.27;;;19.60;99.90;;;;;;20971961;28;20232;-66
2021/06/08 03:16:58;;;;;;;3.73;1.73;;;19.10;99.90;;;;;;20990835;28;20311;-67
2021/06/08 03:27:04;;;;;;;0.93;0.80;;;19.10;99.90;;;;;;20989826;28;20619;-67
2021/06/08 03:37:10;;;;;;;1.97;1.27;;;19.20;99.90;;;;;;20989034;28;20227;-70
2021/06/08 03:47:13;;;;;;;0.70;0.50;;;19.20;99.90;;;;;;20987975;28;20192;-67
2021/06/08 03:57:19;;;;;;;2.80;1.37;;;18.80;99.90;;;;;;20986897;28;20224;-68
2021/06/08 04:07:23;;;;;;;2.03;1.63;;;18.50;99.90;;;;;;20968225;28;20657;-67
2021/06/08 04:17:27;;;;;;;0.60;0.60;;;18.70;99.90;;;;;;20985497;28;20259;-65
2021/06/08 04:27:31;;;;;;;2.23;1.13;;;18.80;99.90;;;;;;20932028;28;20189;-67
2021/06/08 04:37:36;;;;;;;0.40;0.40;;;19.10;99.90;;;;;;20982743;28;20746;-67
2021/06/08 04:47:40;;;;;;;0.50;0.40;;;19.10;99.90;;;;;;20981429;28;20616;-67
2021/06/08 04:57:45;;;;;;;2.10;1.00;;;19.10;99.90;;;;;;20982671;28;20316;-67
2021/06/08 05:08:08;;;;;;;2.83;1.43;;;19.20;99.90;;;;;;20948413;28;20207;-67
2021/06/08 05:18:15;;;;;;;1.30;0.67;;;19.20;99.90;;;;;;20982217;28;20615;-67
2021/06/08 05:28:20;;;;;;;4.80;2.00;;;19.30;99.90;;;;;;20981299;28;20688;-66
2021/06/08 05:38:31;;;;;;;1.37;1.03;;;19.60;99.90;;;;;;20979482;28;20252;-66
2021/06/08 05:48:36;;;;;;;4.43;2.63;;;19.90;99.90;;;;;;20979564;28;20219;-66
2021/06/08 05:58:41;;;;;;;17.43;1.60;;;20.30;99.90;;;;;;20977916;28;20230;-68
2021/06/08 06:08:44;;;;;;;1.33;0.97;;;20.70;99.90;;;;;;20987693;28;20197;-67
2021/06/08 06:18:48;;;;;;;1.83;1.20;;;21.00;99.90;;;;;;20978119;28;20560;-66
2021/06/08 06:28:52;;;;;;;0.80;0.80;;;21.40;99.90;;;;;;20909885;28;20487;-67
2021/06/08 06:39:04;;;;;;;1.33;1.23;;;21.70;99.90;;;;;;20952392;28;20228;-66
2021/06/08 06:49:08;;;;;;;10.80;2.33;;;22.30;99.90;;;;;;20947782;28;20569;-66
2021/06/08 06:59:14;;;;;;;3.00;1.90;;;22.60;99.90;;;;;;20897282;28;20229;-65
2021/06/08 07:09:23;;;;;;;3.67;1.63;;;22.50;99.90;;;;;;20972164;28;20268;-65
2021/06/08 07:19:28;;;;;;;1.13;1.03;;;22.70;99.90;;;;;;20985544;28;20243;-67
2021/06/08 07:29:32;;;;;;;2.10;1.10;;;23.20;99.90;;;;;;20944009;28;20240;-66
2021/06/08 07:39:44;;;;;;;1.80;0.95;;;23.60;99.90;;;;;;20918617;28;20583;-66
2021/06/08 07:49:50;;;;;;;3.80;2.10;;;23.80;99.90;;;;;;20982567;28;20363;-65
2021/06/08 07:59:55;;;;;;;3.80;1.60;;;23.20;99.90;;;;;;20912199;28;20609;-65
2021/06/08 08:10:00;;;;;;;2.97;1.83;;;22.90;99.90;;;;;;20901191;28;20259;-65
2021/06/08 08:20:07;;;;;;;0.93;0.80;;;22.90;99.90;;;;;;20908874;28;20221;-65
2021/06/08 08:30:11;;;;;;;1.10;1.00;;;22.90;99.90;;;;;;20980892;28;20189;-64
2021/06/08 08:40:17;;;;;;;1.77;1.40;;;22.70;99.90;;;;;;20980868;28;20635;-65
2021/06/08 08:50:22;;;;;;;2.63;1.77;;;22.70;99.90;;;;;;20945734;28;20192;-63
2021/06/08 09:00:29;;;;;;;2.40;1.50;;;22.90;99.90;;;;;;20935112;28;20738;-67
2021/06/08 09:10:34;;;;;;;4.90;2.07;;;22.90;99.90;;;;;;20949157;28;20664;-65
2021/06/08 09:20:39;;;;;;;3.17;0.88;;;23.20;99.90;;;;;;20934295;28;20320;-65
2021/06/08 09:30:42;;;;;;;2.95;1.00;;;23.90;99.90;;;;;;20937012;28;20194;-67
2021/06/08 09:40:47;;;;;;;2.45;2.25;;;24.00;99.90;;;;;;20950301;28;20262;-63
2021/06/08 09:50:50;;;;;;;7.07;3.25;;;24.40;99.90;;;;;;20934621;28;20193;-64
2021/06/08 10:01:17;;;;;;;2.33;2.13;;;24.30;99.90;;;;;;20952201;28;20224;-63
2021/06/08 10:11:23;;;;;;;2.92;2.53;;;24.20;99.90;;;;;;20950614;28;20197;-63
2021/06/08 10:21:40;;;;;;;6.35;2.17;;;24.70;99.90;;;;;;20951091;28;20262;-65
2021/06/08 10:31:44;;;;;;;3.95;2.15;;;24.80;99.90;;;;;;20956671;28;20665;-64
2021/06/08 10:42:10;;;;;;;2.42;2.22;;;25.10;99.90;;;;;;20946783;28;20320;-62
2021/06/08 10:52:16;;;;;;;3.70;1.75;;;25.10;99.90;;;;;;20946058;28;20193;-64
2021/06/08 11:02:45;;;;;;;2.25;1.60;;;25.20;99.90;;;;;;20964840;28;20236;-64
2021/06/08 11:12:49;;;;;;;2.53;1.70;;;25.50;99.90;;;;;;20966163;28;20246;-65
2021/06/08 11:22:59;;;;;;;2.88;2.03;;;26.10;99.90;;;;;;20936464;28;20225;-66
2021/06/08 11:33:06;;;;;;;4.18;1.77;;;27.00;99.90;;;;;;20945615;28;20500;-65
2021/06/08 11:43:46;;;;;;;2.33;2.08;;;27.70;99.90;;;;;;20980241;28;20228;-64
2021/06/08 11:53:57;;;;;;;2.80;1.83;;;28.00;99.90;;;;;;20984803;28;20283;-64
2021/06/08 12:04:02;;;;;;;0.65;0.65;;;28.50;99.90;;;;;;20921768;28;20643;-65
2021/06/08 12:14:08;;;;;;;2.45;1.90;;;28.80;99.90;;;;;;20975817;28;20757;-66
2021/06/08 12:24:18;;;;;;;2.40;1.33;;;29.40;99.90;;;;;;20932112;28;20225;-64
2021/06/08 12:34:24;;;;;;;3.80;2.15;;;29.60;99.90;;;;;;20948117;28;20207;-63
2021/06/08 12:44:30;;;;;;;2.83;2.33;;;29.30;99.90;;;;;;20917354;28;20221;-65
2021/06/08 12:54:38;;;;;;;3.25;1.98;;;29.70;99.90;;;;;;20958189;28;20650;-63
2021/06/08 13:04:44;;;;;;;1.92;1.67;;;30.10;99.90;;;;;;20947196;28;20233;-64
2021/06/08 13:15:00;;;;;;;4.15;1.70;;;29.90;99.90;;;;;;20894496;28;20193;-64
2021/06/08 13:25:13;;;;;;;3.25;2.00;;;30.60;99.90;;;;;;20909805;28;20231;-64
2021/06/08 13:35:18;;;;;;;3.13;2.60;;;30.40;99.90;;;;;;20976137;28;20220;-64
2021/06/08 13:45:31;;;;;;;2.35;1.25;;;30.90;99.90;;;;;;20964114;28;20268;-65
2021/06/08 13:55:39;;;;;;;3.45;2.33;;;30.30;99.90;;;;;;20893273;28;20186;-63
2021/06/08 14:05:47;;;;;;;2.15;1.92;;;29.80;99.90;;;;;;20899676;28;20224;-66
2021/06/08 14:15:51;;;;;;;4.00;1.65;;;30.60;99.90;;;;;;20956692;28;20270;-62
2021/06/08 14:25:56;;;;;;;12.15;2.00;;;29.80;99.90;;;;;;20930817;28;20721;-62
2021/06/08 14:35:59;;;;;;;2.30;2.10;;;31.00;99.90;;;;;;20944949;28;20208;-63
2021/06/08 14:46:04;;;;;;;2.17;1.65;;;31.70;99.90;;;;;;20956245;28;20273;-65
2021/06/08 14:56:08;;;;;;;4.22;1.95;;;32.00;99.90;;;;;;20985193;28;20238;-63
2021/06/08 15:06:12;;;;;;;0.90;0.90;;;32.20;99.90;;;;;;20984218;28;20240;-65
2021/06/08 15:16:16;;;;;;;1.52;0.80;;;32.20;99.90;;;;;;20976518;28;20222;-65
2021/06/08 15:26:20;;;;;;;2.80;1.00;;;32.10;99.90;;;;;;20941701;28;20220;-65
2021/06/08 15:36:23;;;;;;;5.75;1.08;;;32.00;99.90;;;;;;20979466;28;20276;-65
2021/06/08 15:46:30;;;;;;;3.03;0.90;;;31.40;99.90;;;;;;20942519;28;20221;-66
2021/06/08 15:56:36;;;;;;;3.83;2.13;;;30.20;99.90;;;;;;20928191;28;20204;-66
2021/06/08 16:06:41;;;;;;;3.63;1.60;;;31.40;99.90;;;;;;20918202;28;20268;-66
2021/06/08 16:17:05;;;;;;;4.43;2.45;;;30.30;99.90;;;;;;20870362;28;20276;-66
2021/06/08 16:27:10;;;;;;;1.20;1.10;;;28.50;99.90;;;;;;20885990;28;20304;-64
2021/06/08 16:37:13;;;;;;;1.02;0.75;;;29.40;99.90;;;;;;20898931;28;20212;-63
2021/06/08 16:47:18;;;;;;;0.80;0.70;;;29.10;99.90;;;;;;20896348;28;20218;-67
2021/06/08 16:57:21;;;;;;;1.35;1.15;;;28.40;99.90;;;;;;20898543;28;20197;-66
2021/06/08 17:07:27;;;;;;;2.53;1.83;;;28.50;99.90;;;;;;20979950;28;20224;-66
2021/06/08 17:17:30;;;;;;;3.33;1.15;;;29.60;99.90;;;;;;20923895;28;20197;-64
2021/06/08 17:27:35;;;;;;;2.83;0.75;;;29.60;99.90;;;;;;20846347;28;20686;-66
2021/06/08 17:37:38;;;;;;;5.68;1.13;;;30.70;99.90;;;;;;20856806;28;20234;-68
2021/06/08 17:47:43;;;;;;;1.30;0.90;;;28.90;99.90;;;;;;20860337;28;20221;-66
2021/06/08 17:57:47;;;;;;;2.00;1.08;;;28.50;99.90;;;;;;20863014;28;20220;-67
2021/06/08 18:07:54;;;;;;;2.97;0.70;;;26.30;99.90;;;;;;20946260;28;20224;-67
2021/06/08 18:17:59;;;;;;;3.58;1.10;;;24.90;99.90;;;;;;20930167;28;20209;-68
2021/06/08 18:28:04;;;;;;;3.30;0.85;;;24.50;99.90;;;;;;20947477;28;20806;-68
2021/06/08 18:38:07;;;;;;;1.65;0.40;;;26.10;99.90;;;;;;20949669;28;20623;-67
2021/06/08 18:48:12;;;;;;;5.75;1.48;;;25.80;99.90;;;;;;20942002;28;20224;-66
2021/06/08 18:58:15;;;;;;;1.98;0.63;;;25.70;99.90;;;;;;20952838;28;20231;-66
2021/06/08 19:08:20;;;;;;;5.53;1.38;;;24.00;99.90;;;;;;20947423;28;20220;-67
2021/06/08 19:18:23;;;;;;;1.67;1.55;;;23.60;99.90;;;;;;20956738;28;20694;-66
2021/06/08 19:28:28;;;;;;;0.23;0.20;;;22.90;99.90;;;;;;20983807;28;20224;-66
2021/06/08 19:38:34;;;;;;;1.73;0.40;;;22.70;99.90;;;;;;20964727;28;20257;-65
2021/06/08 19:48:39;;;;;;;0.90;0.87;;;22.70;99.90;;;;;;20904729;28;20236;-66
2021/06/08 19:58:43;;;;;;;0.87;0.47;;;22.70;99.90;;;;;;20905186;28;20287;-66
2021/06/08 20:08:48;;;;;;;7.03;0.83;;;22.50;99.90;;;;;;20904112;28;20197;-68
2021/06/08 20:18:51;;;;;;;0.70;0.60;;;22.40;99.90;;;;;;20902675;28;20201;-67
2021/06/08 20:28:55;;;;;;;0.63;0.60;;;22.50;99.90;;;;;;20984875;28;20693;-67
2021/06/08 20:38:58;;;;;;;1.53;0.60;;;22.30;99.90;;;;;;20984439;28;20246;-67
2021/06/08 20:49:05;;;;;;;0.70;0.70;;;22.30;99.90;;;;;;20966199;28;20204;-67
2021/06/08 20:59:09;;;;;;;1.67;1.30;;;22.40;99.90;;;;;;20918019;28;20459;-67
2021/06/08 21:09:14;;;;;;;0.60;0.60;;;22.40;99.90;;;;;;20923418;28;20251;-65
2021/06/08 21:19:17;;;;;;;1.90;1.07;;;22.00;99.90;;;;;;20907458;28;20678;-67
2021/06/08 21:29:22;;;;;;;4.38;1.13;;;21.90;99.90;;;;;;20962638;28;20515;-67
2021/06/08 21:39:26;;;;;;;0.23;0.10;;;21.50;99.90;;;;;;20957940;28;20209;-65
2021/06/08 21:49:30;;;;;;;0.40;0.30;;;21.30;99.90;;;;;;20954240;28;20272;-65
2021/06/08 21:59:37;;;;;;;0.70;0.57;;;21.20;99.90;;;;;;20954176;28;20698;-65
2021/06/08 22:09:44;;;;;;;0.70;0.57;;;21.10;99.90;;;;;;20953354;28;20219;-66
2021/06/08 22:19:49;;;;;;;0.40;0.37;;;20.80;99.90;;;;;;20909522;28;20236;-66
2021/06/08 22:29:54;;;;;;;0.63;0.63;;;21.00;99.90;;;;;;20996767;28;20197;-66
2021/06/08 22:39:57;;;;;;;10.00;1.63;;;21.10;99.90;;;;;;20992936;28;20235;-66
2021/06/08 22:50:02;;;;;;;0.67;0.60;;;20.80;99.90;;;;;;20993370;28;20653;-66
2021/06/08 23:00:08;;;;;;;1.67;1.20;;;20.80;99.90;;;;;;20992319;28;20235;-66
2021/06/08 23:10:15;;;;;;;1.13;0.50;;;20.60;99.90;;;;;;20990463;28;20518;-63
2021/06/08 23:20:18;;;;;;;1.20;0.33;;;20.60;99.90;;;;;;20989579;28;20657;-65
2021/06/08 23:30:22;;;;;;;0.73;0.53;;;20.60;99.90;;;;;;20990244;28;20192;-64
2021/06/08 23:40:26;;;;;;;6.30;1.40;;;20.40;99.90;;;;;;20989656;28;20705;-65
2021/06/08 23:50:30;;;;;;;0.63;0.63;;;20.50;99.90;;;;;;20986840;28;20193;-65
